sensor_id;sensor_type;location;lat;lon;timestamp;temperature;humidity
34095;DHT22;20372;47.080;15.410;2023-07-13T00:01:29;21.70;92.90
34095;DHT22;20372;47.080;15.410;2023-07-13T00:03:58;21.70;92.90
34095;DHT22;20372;47.080;15.410;2023-07-13T00:06:24;21.70;93.30
34095;DHT22;20372;47.080;15.410;2023-07-13T00:08:50;21.40;94.20
34095;DHT22;20372;47.080;15.410;2023-07-13T00:11:16;21.40;94.40
34095;DHT22;20372;47.080;15.410;2023-07-13T00:13:42;21.50;94.10
34095;DHT22;20372;47.080;15.410;2023-07-13T00:16:09;21.50;94.00
34095;DHT22;20372;47.080;15.410;2023-07-13T00:18:35;21.50;94.10
34095;DHT22;20372;47.080;15.410;2023-07-13T00:21:01;21.40;94.80
34095;DHT22;20372;47.080;15.410;2023-07-13T00:23:37;21.20;95.10
34095;DHT22;20372;47.080;15.410;2023-07-13T00:26:04;21.30;95.40
34095;DHT22;20372;47.080;15.410;2023-07-13T00:28:30;21.30;95.80
34095;DHT22;20372;47.080;15.410;2023-07-13T00:30:56;21.30;95.90
34095;DHT22;20372;47.080;15.410;2023-07-13T00:33:22;21.20;95.90
34095;DHT22;20372;47.080;15.410;2023-07-13T00:35:48;21.30;96.00
34095;DHT22;20372;47.080;15.410;2023-07-13T00:38:14;21.30;95.70
34095;DHT22;20372;47.080;15.410;2023-07-13T00:40:39;21.30;95.70
34095;DHT22;20372;47.080;15.410;2023-07-13T00:43:27;21.30;95.40
34095;DHT22;20372;47.080;15.410;2023-07-13T00:48:26;21.30;95.70
34095;DHT22;20372;47.080;15.410;2023-07-13T00:50:53;21.30;95.80
34095;DHT22;20372;47.080;15.410;2023-07-13T00:53:21;21.30;95.80
34095;DHT22;20372;47.080;15.410;2023-07-13T00:55:47;21.30;95.70
34095;DHT22;20372;47.080;15.410;2023-07-13T00:58:14;21.30;95.70
34095;DHT22;20372;47.080;15.410;2023-07-13T01:00:40;21.20;96.00
34095;DHT22;20372;47.080;15.410;2023-07-13T01:03:07;21.20;96.10
34095;DHT22;20372;47.080;15.410;2023-07-13T01:05:33;21.20;96.30
34095;DHT22;20372;47.080;15.410;2023-07-13T01:07:59;21.30;95.90
34095;DHT22;20372;47.080;15.410;2023-07-13T01:10:26;21.40;95.60
34095;DHT22;20372;47.080;15.410;2023-07-13T01:13:08;21.40;95.60
34095;DHT22;20372;47.080;15.410;2023-07-13T01:18:03;21.30;96.20
34095;DHT22;20372;47.080;15.410;2023-07-13T01:20:29;21.30;97.10
34095;DHT22;20372;47.080;15.410;2023-07-13T01:22:55;21.20;99.10
34095;DHT22;20372;47.080;15.410;2023-07-13T01:25:21;21.20;99.90
34095;DHT22;20372;47.080;15.410;2023-07-13T01:27:46;21.10;99.90
34095;DHT22;20372;47.080;15.410;2023-07-13T01:30:12;21.10;99.80
34095;DHT22;20372;47.080;15.410;2023-07-13T01:32:38;21.20;99.90
34095;DHT22;20372;47.080;15.410;2023-07-13T01:35:07;20.70;99.90
34095;DHT22;20372;47.080;15.410;2023-07-13T01:37:33;20.10;99.90
34095;DHT22;20372;47.080;15.410;2023-07-13T01:40:02;19.60;99.90
34095;DHT22;20372;47.080;15.410;2023-07-13T01:42:29;19.20;99.90
34095;DHT22;20372;47.080;15.410;2023-07-13T01:44:55;18.90;99.90
34095;DHT22;20372;47.080;15.410;2023-07-13T01:47:21;18.50;99.90
34095;DHT22;20372;47.080;15.410;2023-07-13T01:49:47;18.30;99.90
34095;DHT22;20372;47.080;15.410;2023-07-13T01:52:12;18.10;99.90
34095;DHT22;20372;47.080;15.410;2023-07-13T01:54:38;18.00;99.90
34095;DHT22;20372;47.080;15.410;2023-07-13T01:57:04;17.80;99.90
34095;DHT22;20372;47.080;15.410;2023-07-13T01:59:29;18.00;99.90
34095;DHT22;20372;47.080;15.410;2023-07-13T02:01:55;18.10;99.90
34095;DHT22;20372;47.080;15.410;2023-07-13T02:04:20;18.20;99.90
34095;DHT22;20372;47.080;15.410;2023-07-13T02:06:46;18.20;99.90
34095;DHT22;20372;47.080;15.410;2023-07-13T02:09:11;18.30;99.90
34095;DHT22;20372;47.080;15.410;2023-07-13T02:11:37;18.20;99.90
34095;DHT22;20372;47.080;15.410;2023-07-13T02:14:03;18.20;99.90
34095;DHT22;20372;47.080;15.410;2023-07-13T02:16:29;18.20;99.90
34095;DHT22;20372;47.080;15.410;2023-07-13T02:18:55;18.20;99.90
34095;DHT22;20372;47.080;15.410;2023-07-13T02:21:21;18.20;99.90
34095;DHT22;20372;47.080;15.410;2023-07-13T02:23:47;18.10;99.90
34095;DHT22;20372;47.080;15.410;2023-07-13T02:26:12;18.10;99.90
34095;DHT22;20372;47.080;15.410;2023-07-13T02:28:38;18.10;99.90
34095;DHT22;20372;47.080;15.410;2023-07-13T02:31:05;17.90;99.90
34095;DHT22;20372;47.080;15.410;2023-07-13T02:33:31;17.70;99.90
34095;DHT22;20372;47.080;15.410;2023-07-13T02:35:56;17.50;99.90
34095;DHT22;20372;47.080;15.410;2023-07-13T02:38:22;17.40;99.90
34095;DHT22;20372;47.080;15.410;2023-07-13T02:40:47;17.30;99.90
34095;DHT22;20372;47.080;15.410;2023-07-13T02:43:13;17.10;99.90
34095;DHT22;20372;47.080;15.410;2023-07-13T02:45:38;17.10;99.90
34095;DHT22;20372;47.080;15.410;2023-07-13T02:48:08;17.10;99.90
34095;DHT22;20372;47.080;15.410;2023-07-13T02:50:34;17.20;99.90
34095;DHT22;20372;47.080;15.410;2023-07-13T02:52:59;17.30;99.90
34095;DHT22;20372;47.080;15.410;2023-07-13T02:55:25;17.30;99.90
34095;DHT22;20372;47.080;15.410;2023-07-13T02:57:50;17.30;99.90
34095;DHT22;20372;47.080;15.410;2023-07-13T03:00:16;17.30;99.90
34095;DHT22;20372;47.080;15.410;2023-07-13T03:02:42;17.30;99.90
34095;DHT22;20372;47.080;15.410;2023-07-13T03:05:07;17.50;99.90
34095;DHT22;20372;47.080;15.410;2023-07-13T03:07:35;17.40;99.90
34095;DHT22;20372;47.080;15.410;2023-07-13T03:10:01;17.60;99.90
34095;DHT22;20372;47.080;15.410;2023-07-13T03:12:27;17.70;99.90
34095;DHT22;20372;47.080;15.410;2023-07-13T03:14:53;17.60;99.90
34095;DHT22;20372;47.080;15.410;2023-07-13T03:17:18;17.70;99.90
34095;DHT22;20372;47.080;15.410;2023-07-13T03:19:44;17.50;99.90
34095;DHT22;20372;47.080;15.410;2023-07-13T03:22:09;17.50;99.90
34095;DHT22;20372;47.080;15.410;2023-07-13T03:24:35;17.60;99.90
34095;DHT22;20372;47.080;15.410;2023-07-13T03:27:04;17.60;99.90
34095;DHT22;20372;47.080;15.410;2023-07-13T03:29:30;17.60;99.90
34095;DHT22;20372;47.080;15.410;2023-07-13T03:31:55;17.70;99.90
34095;DHT22;20372;47.080;15.410;2023-07-13T03:34:21;17.40;99.90
34095;DHT22;20372;47.080;15.410;2023-07-13T03:36:46;17.40;99.90
34095;DHT22;20372;47.080;15.410;2023-07-13T03:39:12;17.40;99.90
34095;DHT22;20372;47.080;15.410;2023-07-13T03:41:38;17.50;99.90
34095;DHT22;20372;47.080;15.410;2023-07-13T03:44:03;17.40;99.90
34095;DHT22;20372;47.080;15.410;2023-07-13T03:46:29;17.30;99.90
34095;DHT22;20372;47.080;15.410;2023-07-13T03:48:55;17.30;99.90
34095;DHT22;20372;47.080;15.410;2023-07-13T03:51:20;17.20;99.90
34095;DHT22;20372;47.080;15.410;2023-07-13T03:53:46;17.10;99.90
34095;DHT22;20372;47.080;15.410;2023-07-13T03:56:13;17.20;99.90
34095;DHT22;20372;47.080;15.410;2023-07-13T03:58:40;17.30;99.90
34095;DHT22;20372;47.080;15.410;2023-07-13T04:01:07;17.60;99.90
34095;DHT22;20372;47.080;15.410;2023-07-13T04:03:33;17.60;99.90
34095;DHT22;20372;47.080;15.410;2023-07-13T04:06:00;17.60;99.90
34095;DHT22;20372;47.080;15.410;2023-07-13T04:08:29;17.70;99.90
34095;DHT22;20372;47.080;15.410;2023-07-13T04:10:56;17.60;99.90
34095;DHT22;20372;47.080;15.410;2023-07-13T04:13:22;17.60;99.90
34095;DHT22;20372;47.080;15.410;2023-07-13T04:15:48;17.70;99.90
34095;DHT22;20372;47.080;15.410;2023-07-13T04:18:13;17.80;99.90
34095;DHT22;20372;47.080;15.410;2023-07-13T04:20:39;17.80;99.90
34095;DHT22;20372;47.080;15.410;2023-07-13T04:23:04;17.70;99.90
34095;DHT22;20372;47.080;15.410;2023-07-13T04:25:30;17.60;99.90
34095;DHT22;20372;47.080;15.410;2023-07-13T04:27:56;17.40;99.90
34095;DHT22;20372;47.080;15.410;2023-07-13T04:30:22;17.60;99.90
34095;DHT22;20372;47.080;15.410;2023-07-13T04:32:50;17.70;99.90
34095;DHT22;20372;47.080;15.410;2023-07-13T04:35:17;17.80;99.90
34095;DHT22;20372;47.080;15.410;2023-07-13T04:37:43;17.60;99.90
34095;DHT22;20372;47.080;15.410;2023-07-13T04:40:08;17.60;99.90
34095;DHT22;20372;47.080;15.410;2023-07-13T04:42:37;17.70;99.90
34095;DHT22;20372;47.080;15.410;2023-07-13T04:45:05;17.70;99.90
34095;DHT22;20372;47.080;15.410;2023-07-13T04:47:31;17.90;99.90
34095;DHT22;20372;47.080;15.410;2023-07-13T04:49:56;17.90;99.90
34095;DHT22;20372;47.080;15.410;2023-07-13T04:52:23;18.00;99.90
34095;DHT22;20372;47.080;15.410;2023-07-13T04:54:49;18.10;99.90
34095;DHT22;20372;47.080;15.410;2023-07-13T04:57:14;17.90;99.90
34095;DHT22;20372;47.080;15.410;2023-07-13T04:59:40;17.70;99.90
34095;DHT22;20372;47.080;15.410;2023-07-13T05:02:05;17.80;99.90
34095;DHT22;20372;47.080;15.410;2023-07-13T05:04:31;17.70;99.90
34095;DHT22;20372;47.080;15.410;2023-07-13T05:06:57;17.90;99.90
34095;DHT22;20372;47.080;15.410;2023-07-13T05:09:22;17.90;99.90
34095;DHT22;20372;47.080;15.410;2023-07-13T05:11:48;17.60;99.90
34095;DHT22;20372;47.080;15.410;2023-07-13T05:14:13;17.50;99.90
34095;DHT22;20372;47.080;15.410;2023-07-13T05:16:40;17.70;99.90
34095;DHT22;20372;47.080;15.410;2023-07-13T05:19:06;17.90;99.90
34095;DHT22;20372;47.080;15.410;2023-07-13T05:21:31;18.40;99.90
34095;DHT22;20372;47.080;15.410;2023-07-13T05:23:57;18.40;99.90
34095;DHT22;20372;47.080;15.410;2023-07-13T05:26:23;18.00;99.90
34095;DHT22;20372;47.080;15.410;2023-07-13T05:28:48;18.40;99.90
34095;DHT22;20372;47.080;15.410;2023-07-13T05:31:14;18.90;99.90
34095;DHT22;20372;47.080;15.410;2023-07-13T05:33:39;19.60;99.90
34095;DHT22;20372;47.080;15.410;2023-07-13T05:36:05;20.30;99.90
34095;DHT22;20372;47.080;15.410;2023-07-13T05:38:32;20.50;99.90
34095;DHT22;20372;47.080;15.410;2023-07-13T05:40:58;20.60;99.90
34095;DHT22;20372;47.080;15.410;2023-07-13T05:43:24;20.60;99.90
34095;DHT22;20372;47.080;15.410;2023-07-13T05:45:51;20.70;99.90
34095;DHT22;20372;47.080;15.410;2023-07-13T05:48:16;21.70;99.90
34095;DHT22;20372;47.080;15.410;2023-07-13T05:50:42;22.40;99.90
34095;DHT22;20372;47.080;15.410;2023-07-13T05:53:07;22.70;99.90
34095;DHT22;20372;47.080;15.410;2023-07-13T05:55:33;22.80;99.90
34095;DHT22;20372;47.080;15.410;2023-07-13T05:57:59;23.50;99.90
34095;DHT22;20372;47.080;15.410;2023-07-13T06:00:25;24.10;99.90
34095;DHT22;20372;47.080;15.410;2023-07-13T06:02:51;24.50;99.90
34095;DHT22;20372;47.080;15.410;2023-07-13T06:05:16;24.80;99.90
34095;DHT22;20372;47.080;15.410;2023-07-13T06:07:42;24.90;99.90
34095;DHT22;20372;47.080;15.410;2023-07-13T06:10:08;25.00;99.90
34095;DHT22;20372;47.080;15.410;2023-07-13T06:12:34;25.00;99.90
34095;DHT22;20372;47.080;15.410;2023-07-13T06:14:59;25.10;99.90
34095;DHT22;20372;47.080;15.410;2023-07-13T06:17:25;25.70;99.90
34095;DHT22;20372;47.080;15.410;2023-07-13T06:19:50;25.80;99.90
34095;DHT22;20372;47.080;15.410;2023-07-13T06:22:16;26.00;99.90
34095;DHT22;20372;47.080;15.410;2023-07-13T06:24:41;25.90;99.90
34095;DHT22;20372;47.080;15.410;2023-07-13T06:27:07;26.00;99.90
34095;DHT22;20372;47.080;15.410;2023-07-13T06:29:33;26.40;99.90
34095;DHT22;20372;47.080;15.410;2023-07-13T06:31:58;27.10;99.90
34095;DHT22;20372;47.080;15.410;2023-07-13T06:34:24;27.20;98.30
34095;DHT22;20372;47.080;15.410;2023-07-13T06:36:49;27.20;97.90
34095;DHT22;20372;47.080;15.410;2023-07-13T06:39:15;27.40;99.30
34095;DHT22;20372;47.080;15.410;2023-07-13T06:41:40;28.30;96.60
34095;DHT22;20372;47.080;15.410;2023-07-13T06:44:06;28.20;96.90
34095;DHT22;20372;47.080;15.410;2023-07-13T06:46:32;28.10;95.80
34095;DHT22;20372;47.080;15.410;2023-07-13T06:48:57;27.60;95.60
34095;DHT22;20372;47.080;15.410;2023-07-13T06:51:23;27.10;95.60
34095;DHT22;20372;47.080;15.410;2023-07-13T06:53:48;27.80;95.00
34095;DHT22;20372;47.080;15.410;2023-07-13T06:56:15;27.50;96.40
34095;DHT22;20372;47.080;15.410;2023-07-13T06:58:40;28.30;93.00
34095;DHT22;20372;47.080;15.410;2023-07-13T07:01:06;27.70;94.00
34095;DHT22;20372;47.080;15.410;2023-07-13T07:03:32;28.70;94.00
34095;DHT22;20372;47.080;15.410;2023-07-13T07:06:17;29.60;95.50
34095;DHT22;20372;47.080;15.410;2023-07-13T07:08:43;29.60;90.50
34095;DHT22;20372;47.080;15.410;2023-07-13T07:11:14;28.90;92.50
34095;DHT22;20372;47.080;15.410;2023-07-13T07:13:40;28.50;92.20
34095;DHT22;20372;47.080;15.410;2023-07-13T07:16:05;29.70;91.40
34095;DHT22;20372;47.080;15.410;2023-07-13T07:18:32;29.90;91.20
34095;DHT22;20372;47.080;15.410;2023-07-13T07:20:57;30.00;90.00
34095;DHT22;20372;47.080;15.410;2023-07-13T07:23:23;30.50;92.80
34095;DHT22;20372;47.080;15.410;2023-07-13T07:25:48;30.50;91.90
34095;DHT22;20372;47.080;15.410;2023-07-13T07:28:15;30.00;88.60
34095;DHT22;20372;47.080;15.410;2023-07-13T07:30:46;29.60;89.00
34095;DHT22;20372;47.080;15.410;2023-07-13T07:33:12;29.50;89.50
34095;DHT22;20372;47.080;15.410;2023-07-13T07:35:37;28.30;90.40
34095;DHT22;20372;47.080;15.410;2023-07-13T07:38:03;28.90;89.60
34095;DHT22;20372;47.080;15.410;2023-07-13T07:40:29;27.70;89.60
34095;DHT22;20372;47.080;15.410;2023-07-13T07:42:54;27.70;90.70
34095;DHT22;20372;47.080;15.410;2023-07-13T07:45:20;27.80;90.50
34095;DHT22;20372;47.080;15.410;2023-07-13T07:47:46;27.70;90.50
34095;DHT22;20372;47.080;15.410;2023-07-13T07:50:11;27.40;91.40
34095;DHT22;20372;47.080;15.410;2023-07-13T07:52:37;27.30;92.20
34095;DHT22;20372;47.080;15.410;2023-07-13T07:55:03;28.20;91.20
34095;DHT22;20372;47.080;15.410;2023-07-13T07:57:29;28.10;90.40
34095;DHT22;20372;47.080;15.410;2023-07-13T07:59:55;28.80;90.30
34095;DHT22;20372;47.080;15.410;2023-07-13T08:02:20;29.20;91.50
34095;DHT22;20372;47.080;15.410;2023-07-13T08:04:46;30.30;85.40
34095;DHT22;20372;47.080;15.410;2023-07-13T08:07:11;29.90;86.70
34095;DHT22;20372;47.080;15.410;2023-07-13T08:09:37;29.10;90.20
34095;DHT22;20372;47.080;15.410;2023-07-13T08:12:02;29.10;90.30
34095;DHT22;20372;47.080;15.410;2023-07-13T08:14:28;28.60;89.20
34095;DHT22;20372;47.080;15.410;2023-07-13T08:16:54;28.50;87.30
34095;DHT22;20372;47.080;15.410;2023-07-13T08:19:19;28.20;87.50
34095;DHT22;20372;47.080;15.410;2023-07-13T08:21:45;28.30;87.90
34095;DHT22;20372;47.080;15.410;2023-07-13T08:24:13;28.80;86.70
34095;DHT22;20372;47.080;15.410;2023-07-13T08:26:39;28.90;84.40
34095;DHT22;20372;47.080;15.410;2023-07-13T08:29:05;29.10;85.20
34095;DHT22;20372;47.080;15.410;2023-07-13T08:31:30;29.40;83.00
34095;DHT22;20372;47.080;15.410;2023-07-13T08:33:56;29.90;82.30
34095;DHT22;20372;47.080;15.410;2023-07-13T08:36:22;29.90;85.70
34095;DHT22;20372;47.080;15.410;2023-07-13T08:38:47;29.60;79.50
34095;DHT22;20372;47.080;15.410;2023-07-13T08:41:14;28.60;82.60
34095;DHT22;20372;47.080;15.410;2023-07-13T08:43:40;28.90;85.90
34095;DHT22;20372;47.080;15.410;2023-07-13T08:46:12;30.70;85.50
34095;DHT22;20372;47.080;15.410;2023-07-13T08:48:43;31.90;81.00
34095;DHT22;20372;47.080;15.410;2023-07-13T08:51:19;31.90;77.50
34095;DHT22;20372;47.080;15.410;2023-07-13T08:53:52;31.30;79.30
34095;DHT22;20372;47.080;15.410;2023-07-13T08:56:22;31.80;76.70
34095;DHT22;20372;47.080;15.410;2023-07-13T08:58:49;32.10;82.50
34095;DHT22;20372;47.080;15.410;2023-07-13T09:06:21;32.00;75.30
34095;DHT22;20372;47.080;15.410;2023-07-13T09:08:55;31.60;75.60
34095;DHT22;20372;47.080;15.410;2023-07-13T09:16:41;31.20;76.90
34095;DHT22;20372;47.080;15.410;2023-07-13T09:19:08;31.00;75.80
34095;DHT22;20372;47.080;15.410;2023-07-13T09:21:37;30.90;75.10
34095;DHT22;20372;47.080;15.410;2023-07-13T09:24:26;31.10;78.60
34095;DHT22;20372;47.080;15.410;2023-07-13T09:26:50;31.90;77.20
34095;DHT22;20372;47.080;15.410;2023-07-13T09:29:21;31.10;73.30
34095;DHT22;20372;47.080;15.410;2023-07-13T09:31:49;30.20;73.80
34095;DHT22;20372;47.080;15.410;2023-07-13T09:34:17;29.50;78.60
34095;DHT22;20372;47.080;15.410;2023-07-13T09:36:43;30.30;78.40
34095;DHT22;20372;47.080;15.410;2023-07-13T09:39:14;30.50;76.30
34095;DHT22;20372;47.080;15.410;2023-07-13T09:44:14;29.60;75.50
34095;DHT22;20372;47.080;15.410;2023-07-13T09:46:44;29.30;80.40
34095;DHT22;20372;47.080;15.410;2023-07-13T09:49:11;29.00;76.40
34095;DHT22;20372;47.080;15.410;2023-07-13T09:51:37;28.50;77.40
34095;DHT22;20372;47.080;15.410;2023-07-13T09:54:04;28.10;78.90
34095;DHT22;20372;47.080;15.410;2023-07-13T09:56:29;28.80;85.10
34095;DHT22;20372;47.080;15.410;2023-07-13T09:58:55;29.70;79.60
34095;DHT22;20372;47.080;15.410;2023-07-13T10:01:40;29.60;76.80
34095;DHT22;20372;47.080;15.410;2023-07-13T10:04:12;28.10;78.80
34095;DHT22;20372;47.080;15.410;2023-07-13T10:06:39;27.20;79.80
34095;DHT22;20372;47.080;15.410;2023-07-13T10:09:08;27.20;80.80
34095;DHT22;20372;47.080;15.410;2023-07-13T10:11:35;27.50;81.00
34095;DHT22;20372;47.080;15.410;2023-07-13T10:14:17;28.10;78.40
34095;DHT22;20372;47.080;15.410;2023-07-13T10:16:44;28.40;79.30
34095;DHT22;20372;47.080;15.410;2023-07-13T10:21:52;29.40;82.40
34095;DHT22;20372;47.080;15.410;2023-07-13T10:24:22;28.90;81.10
34095;DHT22;20372;47.080;15.410;2023-07-13T10:26:52;28.60;76.50
34095;DHT22;20372;47.080;15.410;2023-07-13T10:29:20;28.40;87.00
34095;DHT22;20372;47.080;15.410;2023-07-13T10:31:47;28.50;83.40
34095;DHT22;20372;47.080;15.410;2023-07-13T10:34:13;28.90;85.30
34095;DHT22;20372;47.080;15.410;2023-07-13T10:36:43;29.00;85.40
34095;DHT22;20372;47.080;15.410;2023-07-13T10:39:16;29.20;80.60
34095;DHT22;20372;47.080;15.410;2023-07-13T10:41:42;29.30;86.60
34095;DHT22;20372;47.080;15.410;2023-07-13T10:44:15;29.50;86.00
34095;DHT22;20372;47.080;15.410;2023-07-13T10:46:43;29.30;82.40
34095;DHT22;20372;47.080;15.410;2023-07-13T10:49:10;29.20;77.00
34095;DHT22;20372;47.080;15.410;2023-07-13T10:51:37;29.30;81.80
34095;DHT22;20372;47.080;15.410;2023-07-13T10:54:45;29.40;78.80
34095;DHT22;20372;47.080;15.410;2023-07-13T10:56:53;29.10;81.70
34095;DHT22;20372;47.080;15.410;2023-07-13T10:59:29;28.70;77.30
34095;DHT22;20372;47.080;15.410;2023-07-13T11:01:56;29.20;85.20
34095;DHT22;20372;47.080;15.410;2023-07-13T11:04:23;29.50;85.80
34095;DHT22;20372;47.080;15.410;2023-07-13T11:06:52;29.40;76.80
34095;DHT22;20372;47.080;15.410;2023-07-13T11:11:43;28.80;82.60
34095;DHT22;20372;47.080;15.410;2023-07-13T11:16:47;28.60;77.20
34095;DHT22;20372;47.080;15.410;2023-07-13T11:24:28;28.90;76.60
34095;DHT22;20372;47.080;15.410;2023-07-13T11:26:55;29.00;81.10
34095;DHT22;20372;47.080;15.410;2023-07-13T11:31:56;28.50;76.90
34095;DHT22;20372;47.080;15.410;2023-07-13T11:34:33;28.70;86.20
34095;DHT22;20372;47.080;15.410;2023-07-13T11:37:00;28.80;84.80
34095;DHT22;20372;47.080;15.410;2023-07-13T11:39:30;28.70;80.10
34095;DHT22;20372;47.080;15.410;2023-07-13T11:41:58;28.70;86.30
34095;DHT22;20372;47.080;15.410;2023-07-13T11:44:25;28.40;77.60
34095;DHT22;20372;47.080;15.410;2023-07-13T11:46:52;28.30;78.50
34095;DHT22;20372;47.080;15.410;2023-07-13T11:49:19;28.20;79.90
34095;DHT22;20372;47.080;15.410;2023-07-13T11:51:45;28.10;84.00
34095;DHT22;20372;47.080;15.410;2023-07-13T11:54:21;28.20;87.90
34095;DHT22;20372;47.080;15.410;2023-07-13T11:56:48;28.20;87.70
34095;DHT22;20372;47.080;15.410;2023-07-13T11:59:15;28.10;90.90
34095;DHT22;20372;47.080;15.410;2023-07-13T12:01:51;28.10;88.80
34095;DHT22;20372;47.080;15.410;2023-07-13T12:06:54;28.00;83.10
34095;DHT22;20372;47.080;15.410;2023-07-13T12:09:20;27.70;85.00
34095;DHT22;20372;47.080;15.410;2023-07-13T12:11:50;28.00;90.60
34095;DHT22;20372;47.080;15.410;2023-07-13T12:14:17;27.90;85.50
34095;DHT22;20372;47.080;15.410;2023-07-13T12:16:43;28.00;89.00
34095;DHT22;20372;47.080;15.410;2023-07-13T12:19:20;28.10;91.80
34095;DHT22;20372;47.080;15.410;2023-07-13T12:21:47;28.10;88.90
34095;DHT22;20372;47.080;15.410;2023-07-13T12:24:19;27.90;92.20
34095;DHT22;20372;47.080;15.410;2023-07-13T12:26:50;27.80;91.10
34095;DHT22;20372;47.080;15.410;2023-07-13T12:29:17;27.70;92.10
34095;DHT22;20372;47.080;15.410;2023-07-13T12:31:44;27.40;91.40
34095;DHT22;20372;47.080;15.410;2023-07-13T12:34:11;27.30;93.00
34095;DHT22;20372;47.080;15.410;2023-07-13T12:36:37;27.10;93.70
34095;DHT22;20372;47.080;15.410;2023-07-13T12:39:06;27.00;94.20
34095;DHT22;20372;47.080;15.410;2023-07-13T12:41:36;26.90;93.60
34095;DHT22;20372;47.080;15.410;2023-07-13T12:44:02;26.90;95.50
34095;DHT22;20372;47.080;15.410;2023-07-13T12:46:28;26.70;94.40
34095;DHT22;20372;47.080;15.410;2023-07-13T12:48:56;26.50;95.20
34095;DHT22;20372;47.080;15.410;2023-07-13T12:51:24;26.30;94.60
34095;DHT22;20372;47.080;15.410;2023-07-13T12:53:51;26.10;94.80
34095;DHT22;20372;47.080;15.410;2023-07-13T12:56:22;26.10;97.10
34095;DHT22;20372;47.080;15.410;2023-07-13T12:58:49;25.90;97.60
34095;DHT22;20372;47.080;15.410;2023-07-13T13:01:21;25.70;98.50
34095;DHT22;20372;47.080;15.410;2023-07-13T13:03:48;25.60;99.10
34095;DHT22;20372;47.080;15.410;2023-07-13T13:08:45;25.40;98.30
34095;DHT22;20372;47.080;15.410;2023-07-13T13:11:10;25.20;98.70
34095;DHT22;20372;47.080;15.410;2023-07-13T13:13:36;25.20;99.90
34095;DHT22;20372;47.080;15.410;2023-07-13T13:16:46;25.20;99.90
34095;DHT22;20372;47.080;15.410;2023-07-13T13:18:51;25.10;99.90
34095;DHT22;20372;47.080;15.410;2023-07-13T13:21:17;24.90;99.90
34095;DHT22;20372;47.080;15.410;2023-07-13T13:23:42;24.90;99.90
34095;DHT22;20372;47.080;15.410;2023-07-13T13:26:10;24.80;99.90
34095;DHT22;20372;47.080;15.410;2023-07-13T13:28:36;24.70;99.90
34095;DHT22;20372;47.080;15.410;2023-07-13T13:31:02;24.50;99.90
34095;DHT22;20372;47.080;15.410;2023-07-13T13:33:27;24.80;99.90
34095;DHT22;20372;47.080;15.410;2023-07-13T13:35:53;24.60;99.90
34095;DHT22;20372;47.080;15.410;2023-07-13T13:38:26;24.70;99.90
34095;DHT22;20372;47.080;15.410;2023-07-13T13:40:52;24.60;99.90
34095;DHT22;20372;47.080;15.410;2023-07-13T13:43:20;24.50;99.90
34095;DHT22;20372;47.080;15.410;2023-07-13T13:45:46;24.20;99.90
34095;DHT22;20372;47.080;15.410;2023-07-13T13:48:23;24.10;99.90
34095;DHT22;20372;47.080;15.410;2023-07-13T13:50:55;24.00;99.90
34095;DHT22;20372;47.080;15.410;2023-07-13T13:53:21;23.80;99.90
34095;DHT22;20372;47.080;15.410;2023-07-13T13:55:49;23.90;99.90
34095;DHT22;20372;47.080;15.410;2023-07-13T13:58:15;23.80;99.90
34095;DHT22;20372;47.080;15.410;2023-07-13T14:00:40;23.70;99.90
34095;DHT22;20372;47.080;15.410;2023-07-13T14:03:08;23.90;99.90
34095;DHT22;20372;47.080;15.410;2023-07-13T14:05:39;23.70;99.90
34095;DHT22;20372;47.080;15.410;2023-07-13T14:08:09;24.10;99.90
34095;DHT22;20372;47.080;15.410;2023-07-13T14:10:38;24.30;99.90
34095;DHT22;20372;47.080;15.410;2023-07-13T14:13:04;24.50;99.90
34095;DHT22;20372;47.080;15.410;2023-07-13T14:15:31;24.40;99.90
34095;DHT22;20372;47.080;15.410;2023-07-13T14:17:57;23.90;99.90
34095;DHT22;20372;47.080;15.410;2023-07-13T14:20:24;23.80;99.90
34095;DHT22;20372;47.080;15.410;2023-07-13T14:22:51;23.80;99.90
34095;DHT22;20372;47.080;15.410;2023-07-13T14:25:17;23.80;99.90
34095;DHT22;20372;47.080;15.410;2023-07-13T14:27:43;24.00;99.90
34095;DHT22;20372;47.080;15.410;2023-07-13T14:30:13;23.70;99.90
34095;DHT22;20372;47.080;15.410;2023-07-13T14:32:40;23.60;99.90
34095;DHT22;20372;47.080;15.410;2023-07-13T14:35:06;23.50;99.90
34095;DHT22;20372;47.080;15.410;2023-07-13T14:37:31;23.40;99.90
34095;DHT22;20372;47.080;15.410;2023-07-13T14:39:57;23.60;99.90
34095;DHT22;20372;47.080;15.410;2023-07-13T14:42:22;23.40;99.90
34095;DHT22;20372;47.080;15.410;2023-07-13T14:44:48;23.10;99.90
34095;DHT22;20372;47.080;15.410;2023-07-13T14:47:14;23.10;99.90
34095;DHT22;20372;47.080;15.410;2023-07-13T14:49:42;23.20;99.90
34095;DHT22;20372;47.080;15.410;2023-07-13T14:52:12;22.90;99.90
34095;DHT22;20372;47.080;15.410;2023-07-13T14:54:39;22.80;99.90
34095;DHT22;20372;47.080;15.410;2023-07-13T14:57:10;21.90;99.90
34095;DHT22;20372;47.080;15.410;2023-07-13T14:59:36;22.10;99.90
34095;DHT22;20372;47.080;15.410;2023-07-13T15:02:02;22.50;99.90
34095;DHT22;20372;47.080;15.410;2023-07-13T15:04:29;22.80;99.90
34095;DHT22;20372;47.080;15.410;2023-07-13T15:06:59;22.70;99.90
34095;DHT22;20372;47.080;15.410;2023-07-13T15:09:25;22.90;99.90
34095;DHT22;20372;47.080;15.410;2023-07-13T15:11:55;22.60;99.90
34095;DHT22;20372;47.080;15.410;2023-07-13T15:14:21;21.80;99.90
34095;DHT22;20372;47.080;15.410;2023-07-13T15:16:47;21.80;99.90
34095;DHT22;20372;47.080;15.410;2023-07-13T15:19:14;22.50;99.90
34095;DHT22;20372;47.080;15.410;2023-07-13T15:21:40;22.60;99.90
34095;DHT22;20372;47.080;15.410;2023-07-13T15:24:07;22.30;99.90
34095;DHT22;20372;47.080;15.410;2023-07-13T15:26:34;22.00;99.90
34095;DHT22;20372;47.080;15.410;2023-07-13T15:29:00;21.80;99.90
34095;DHT22;20372;47.080;15.410;2023-07-13T15:31:26;21.40;99.90
34095;DHT22;20372;47.080;15.410;2023-07-13T15:33:54;21.50;99.90
34095;DHT22;20372;47.080;15.410;2023-07-13T15:36:20;21.10;99.90
34095;DHT22;20372;47.080;15.410;2023-07-13T15:38:46;21.00;99.90
34095;DHT22;20372;47.080;15.410;2023-07-13T15:41:17;20.70;99.90
34095;DHT22;20372;47.080;15.410;2023-07-13T15:43:43;20.60;99.90
34095;DHT22;20372;47.080;15.410;2023-07-13T15:46:09;19.90;99.90
34095;DHT22;20372;47.080;15.410;2023-07-13T15:48:34;19.00;99.90
34095;DHT22;20372;47.080;15.410;2023-07-13T15:51:01;19.30;99.90
34095;DHT22;20372;47.080;15.410;2023-07-13T15:53:31;19.50;99.90